Stena Europe — VSTA3 — position and weather

sailwx.info

Track history (hours):
 
Tides and Currents Weather Stations Pressure Air Temp Water Temp Dewpoint Dewpoint Depression Visibility Wind Speed Wind Dir Waves Ship Positions

Stena Europe

Operator: Stena Line

Last reported at 2018-Sep-19 02:30 UTC. Time now 2018-Sep-19 02:54 UTC.
Position N 52°15' W 006°13'.

Length 149 m; draft 6.1 m.

Type: Passenger vessel. MMSI: 235004539.

Date/timePositionNaut miles runAvg speedWind from/ knotsBaromVisibWave heightAir tempDewpointWater temp
2018-Sep-19 02:30N 52°15' W 006°13'715.4
2018-Sep-19 02:03N 52°13' W 006°02'114.6
2018-Sep-19 02:00N 52°13' W 006°01'713.7
2018-Sep-19 01:30N 52°11' W 005°50'5 0.8
2018-Sep-18 18:59N 52°10' W 005°42'816.5
2018-Sep-18 18:30N 52°12' W 005°55'716.6
2018-Sep-18 18:04N 52°13' W 006°07'116.6
2018-Sep-18 17:59N 52°13' W 006°08'815.6
2018-Sep-18 17:30N 52°16' W 006°20'0 0.7
2018-Sep-18 17:03N 52°15' W 006°20'0 0.0
2018-Sep-18 17:00N 52°15' W 006°20'0 0.0
2018-Sep-18 16:30N 52°15' W 006°20'2 4.2
2018-Sep-18 16:03N 52°15' W 006°17'114.9
2018-Sep-18 16:00N 52°15' W 006°16'714.2
2018-Sep-18 15:30N 52°15' W 006°05'613.7
2018-Sep-18 15:03N 52°15' W 005°55'113.7
2018-Sep-18 15:00N 52°15' W 005°53'814.2
2018-Sep-18 14:27N 52°13' W 005°41'5 0.9
2018-Sep-18 08:34N 52°08' W 005°44'215.4
2018-Sep-18 08:26N 52°09' W 005°47'615.3
2018-Sep-18 08:00N 52°12' W 005°57'815.5
2018-Sep-18 07:30N 52°13' W 006°09'715.4
2018-Sep-18 07:04N 52°16' W 006°20'0 8.2
2018-Sep-18 07:00N 52°15' W 006°20'0 0.4
2018-Sep-18 06:30N 52°15' W 006°20'0 0.0
2018-Sep-18 06:03N 52°15' W 006°20'0 0.0
2018-Sep-18 06:01N 52°15' W 006°20'0 0.0
2018-Sep-18 05:30N 52°15' W 006°20'0 0.0
2018-Sep-18 05:04N 52°15' W 006°20'0 0.0
2018-Sep-18 05:00N 52°15' W 006°20'0 0.0
2018-Sep-18 04:30N 52°15' W 006°20'0 0.0
2018-Sep-18 04:03N 52°15' W 006°20'0 0.0
2018-Sep-18 04:00N 52°15' W 006°20'0 0.0
2018-Sep-18 03:30N 52°15' W 006°20'0 0.7
2018-Sep-18 03:03N 52°16' W 006°20'111.4
2018-Sep-18 03:00N 52°16' W 006°19'713.4
2018-Sep-18 02:30N 52°14' W 006°08'613.0
2018-Sep-18 02:03N 52°14' W 005°59'113.2
2018-Sep-18 02:00N 52°14' W 005°58'612.6
2018-Sep-18 01:30N 52°12' W 005°48'5 0.7
2018-Sep-17 17:59N 52°12' W 005°57'715.8
2018-Sep-17 17:30N 52°13' W 006°09'715.3
2018-Sep-17 17:03N 52°16' W 006°19'111.6
2018-Sep-17 17:00N 52°16' W 006°20'0 0.6
2018-Sep-17 16:30N 52°15' W 006°20'0 0.0
2018-Sep-17 16:03N 52°15' W 006°20'0 0.0
2018-Sep-17 16:00N 52°15' W 006°20'1 1.2
2018-Sep-17 15:30N 52°16' W 006°20'716.1
2018-Sep-17 15:03N 52°13' W 006°09'616.6
2018-Sep-17 14:43N 52°12' W 005°60'416.9
2018-Sep-17 14:30N 52°12' W 005°54'1 0.1
2018-Sep-17 07:56N 52°11' W 005°55'716.3
2018-Sep-17 07:30N 52°13' W 006°06'716.3
2018-Sep-17 07:03N 52°15' W 006°17'116.6
2018-Sep-17 07:00N 52°15' W 006°18'1 2.1
2018-Sep-17 06:31N 52°15' W 006°20'0 0.0
2018-Sep-17 06:03N 52°15' W 006°20'0 0.0
2018-Sep-17 06:01N 52°15' W 006°20'0 0.0
2018-Sep-17 05:31N 52°15' W 006°20'0 0.0
2018-Sep-17 05:03N 52°15' W 006°20'0 0.0
2018-Sep-17 05:00N 52°15' W 006°20'0 0.0
2018-Sep-17 04:31N 52°15' W 006°20'0 0.0
2018-Sep-17 04:04N 52°15' W 006°20'0 0.0
2018-Sep-17 04:01N 52°15' W 006°20'0 0.0
2018-Sep-17 03:31N 52°15' W 006°20'0 0.0
2018-Sep-17 03:03N 52°15' W 006°20'0 0.0
2018-Sep-17 03:00N 52°15' W 006°20'4 7.2
2018-Sep-17 02:30N 52°14' W 006°15'714.7
2018-Sep-17 02:03N 52°14' W 006°04'114.1
2018-Sep-17 02:00N 52°14' W 006°03'4 7.0
2018-Sep-17 01:30N 52°12' W 005°57'914.3
2018-Sep-17 00:53N 52°10' W 005°44'613.9
2018-Sep-17 00:29N 52°09' W 005°34'8 1.3
2018-Sep-16 18:12N 52°10' W 005°47'316.4
2018-Sep-16 18:02N 52°11' W 005°52'116.2
2018-Sep-16 17:59N 52°11' W 005°53'816.5
2018-Sep-16 17:30N 52°13' W 006°05'816.7
2018-Sep-16 17:03N 52°15' W 006°17'117.1
2018-Sep-16 17:00N 52°15' W 006°18'1 2.1
2018-Sep-16 16:30N 52°15' W 006°20'0 0.0
2018-Sep-16 16:03N 52°15' W 006°20'0 0.0
2018-Sep-16 15:59N 52°15' W 006°20'0 1.0
2018-Sep-16 15:30N 52°16' W 006°20'715.7
2018-Sep-16 15:03N 52°14' W 006°09'116.7
2018-Sep-16 15:00N 52°13' W 006°08'816.5
2018-Sep-16 14:30N 52°11' W 005°54'1 0.1
2018-Sep-16 08:06N 52°11' W 005°53'116.5
2018-Sep-16 08:03N 52°11' W 005°54'116.6
2018-Sep-16 08:00N 52°11' W 005°56'816.3
2018-Sep-16 07:30N 52°13' W 006°09'716.3
2018-Sep-16 07:03N 52°16' W 006°20'0 6.0
2018-Sep-16 07:00N 52°15' W 006°20'0 0.3
2018-Sep-16 06:31N 52°15' W 006°20'0 0.0
2018-Sep-16 06:04N 52°15' W 006°20'0 0.0
2018-Sep-16 05:56N 52°15' W 006°20'0 0.0
2018-Sep-16 05:31N 52°15' W 006°20'0 0.0
2018-Sep-16 05:04N 52°15' W 006°20'0 0.0
2018-Sep-16 05:01N 52°15' W 006°20'0 0.0
2018-Sep-16 04:30N 52°15' W 006°20'0 0.0
2018-Sep-16 04:04N 52°15' W 006°20'0 0.0
2018-Sep-16 04:00N 52°15' W 006°20'0 0.0
2018-Sep-16 03:30N 52°15' W 006°20'0 0.0
2018-Sep-16 03:03N 52°15' W 006°20'0 0.4
2018-Sep-16 03:00N 52°15' W 006°20'510.2
2018-Sep-16 02:30N 52°14' W 006°12'614.3
2018-Sep-16 02:03N 52°13' W 006°02'112.2
2018-Sep-16 02:00N 52°13' W 006°01'612.3
2018-Sep-16 01:30N 52°11' W 005°51'6 0.8
2018-Sep-15 18:41N 52°09' W 005°43'316.4
2018-Sep-15 18:30N 52°10' W 005°47'716.4
2018-Sep-15 18:03N 52°12' W 005°59'116.2
2018-Sep-15 18:00N 52°12' W 006°00'816.1
2018-Sep-15 17:30N 52°14' W 006°13'510.6
2018-Sep-15 17:04N 52°15' W 006°20'0 0.0
2018-Sep-15 17:01N 52°15' W 006°20'0 0.0
2018-Sep-15 16:30N 52°15' W 006°20'0 0.0
2018-Sep-15 16:04N 52°15' W 006°20'0 0.0
2018-Sep-15 16:00N 52°15' W 006°20'0 0.3
2018-Sep-15 15:30N 52°15' W 006°20'611.5
2018-Sep-15 15:00N 52°14' W 006°12'816.7
2018-Sep-15 14:30N 52°12' W 005°58'816.5
2018-Sep-15 14:00N 52°10' W 005°45'3 0.6
2018-Sep-15 08:07N 52°10' W 005°50'117.1
2018-Sep-15 08:03N 52°11' W 005°52'117.0
2018-Sep-15 08:00N 52°11' W 005°53'817.0
2018-Sep-15 07:30N 52°13' W 006°07'816.7
2018-Sep-15 07:03N 52°15' W 006°18'114.3
2018-Sep-15 07:00N 52°16' W 006°19'1 1.0
2018-Sep-15 06:30N 52°15' W 006°20'0 0.0
2018-Sep-15 06:03N 52°15' W 006°20'0 0.0
2018-Sep-15 06:00N 52°15' W 006°20'0 0.0
2018-Sep-15 05:30N 52°15' W 006°20'0 0.0
2018-Sep-15 05:03N 52°15' W 006°20'0 0.0
2018-Sep-15 05:00N 52°15' W 006°20'0 0.0
2018-Sep-15 04:30N 52°15' W 006°20'0 0.0
2018-Sep-15 04:03N 52°15' W 006°20'0 0.1
2018-Sep-15 04:00N 52°15' W 006°20'0 0.0
2018-Sep-15 03:30N 52°15' W 006°20'0 0.0
2018-Sep-15 03:03N 52°15' W 006°20'0 0.5
2018-Sep-15 03:00N 52°15' W 006°20'5 9.5
2018-Sep-15 02:30N 52°14' W 006°13'715.4
2018-Sep-15 02:03N 52°12' W 006°02'115.1
2018-Sep-15 02:00N 52°12' W 006°01'714.1
2018-Sep-15 01:30N 52°11' W 005°49'8 1.2
2018-Sep-14 18:49N 52°08' W 005°37'516.2
2018-Sep-14 18:29N 52°10' W 005°45'716.4
2018-Sep-14 18:03N 52°11' W 005°57'116.3
2018-Sep-14 18:00N 52°11' W 005°58'816.3
2018-Sep-14 17:30N 52°13' W 006°11'613.1
2018-Sep-14 17:03N 52°15' W 006°20'0 0.0
2018-Sep-14 17:01N 52°15' W 006°20'0 0.0
2018-Sep-14 16:31N 52°15' W 006°20'0 0.0
2018-Sep-14 16:03N 52°15' W 006°20'0 0.0
2018-Sep-14 16:00N 52°15' W 006°20'3 5.3
2018-Sep-14 15:30N 52°15' W 006°16'715.8
2018-Sep-14 15:03N 52°13' W 006°05'116.2
2018-Sep-14 15:00N 52°12' W 006°03'815.5
2018-Sep-14 14:30N 52°11' W 005°51'2 0.3
2018-Sep-14 07:56N 52°11' W 005°55'716.7
2018-Sep-14 07:30N 52°13' W 006°06'716.5
2018-Sep-14 07:03N 52°15' W 006°18'115.0
2018-Sep-14 07:00N 52°16' W 006°19'1 2.0
2018-Sep-14 06:30N 52°15' W 006°20'0 0.0
2018-Sep-14 06:03N 52°15' W 006°20'0 0.0
2018-Sep-14 06:00N 52°15' W 006°20'0 0.0
2018-Sep-14 05:30N 52°15' W 006°20'0 0.0
2018-Sep-14 05:03N 52°15' W 006°20'0 0.0
2018-Sep-14 05:00N 52°15' W 006°20'0 0.0
2018-Sep-14 04:29N 52°15' W 006°20'0 0.0
2018-Sep-14 04:03N 52°15' W 006°20'0 0.0
2018-Sep-14 04:00N 52°15' W 006°20'0 0.0
2018-Sep-14 03:30N 52°15' W 006°20'0 0.0
2018-Sep-14 03:03N 52°15' W 006°20'0 1.0
2018-Sep-14 03:00N 52°15' W 006°20'510.5
2018-Sep-14 02:30N 52°14' W 006°12'715.9
2018-Sep-14 02:03N 52°12' W 006°01'115.6
2018-Sep-14 02:00N 52°12' W 005°59'814.9
2018-Sep-14 01:29N 52°10' W 005°47'1 0.1
2018-Sep-13 18:40N 52°10' W 005°46'316.7
2018-Sep-13 18:30N 52°10' W 005°51'716.8
2018-Sep-13 18:03N 52°12' W 006°03'117.0
2018-Sep-13 18:00N 52°13' W 006°04'816.9
2018-Sep-13 17:30N 52°15' W 006°17'2 4.3
2018-Sep-13 17:03N 52°15' W 006°20'0 0.0
2018-Sep-13 17:00N 52°15' W 006°20'0 0.0
2018-Sep-13 16:30N 52°15' W 006°20'0 0.0
2018-Sep-13 16:03N 52°15' W 006°20'0 0.0
2018-Sep-13 16:00N 52°15' W 006°20'3 6.8
2018-Sep-13 15:30N 52°14' W 006°15'716.2
2018-Sep-13 15:03N 52°12' W 006°04'116.7
2018-Sep-13 15:00N 52°12' W 006°02'816.3
2018-Sep-13 14:30N 52°11' W 005°49'6 0.9
2018-Sep-13 07:47N 52°12' W 005°58'517.5
2018-Sep-13 07:30N 52°13' W 006°06'716.6
2018-Sep-13 07:03N 52°15' W 006°18'114.1
2018-Sep-13 07:01N 52°16' W 006°19'1 2.0
2018-Sep-13 06:31N 52°15' W 006°20'0 0.0
2018-Sep-13 06:04N 52°15' W 006°20'0 0.0
2018-Sep-13 06:01N 52°15' W 006°20'0 0.0
2018-Sep-13 05:29N 52°15' W 006°20'0 0.0
2018-Sep-13 05:04N 52°15' W 006°20'0 0.0
2018-Sep-13 05:01N 52°15' W 006°20'0 0.0
2018-Sep-13 04:30N 52°15' W 006°20'0 0.0
2018-Sep-13 04:03N 52°15' W 006°20'0 0.0
2018-Sep-13 04:00N 52°15' W 006°20'0 0.0
2018-Sep-13 03:30N 52°15' W 006°20'0 0.0
2018-Sep-13 03:03N 52°15' W 006°20'0 0.1
2018-Sep-13 03:01N 52°15' W 006°20'4 8.3
2018-Sep-13 02:30N 52°14' W 006°14'714.9
2018-Sep-13 02:03N 52°13' W 006°03'114.7
2018-Sep-13 02:00N 52°12' W 006°02'713.7
2018-Sep-13 01:29N 52°12' W 005°50'511.2
2018-Sep-13 01:03N 52°10' W 005°43'112.8
2018-Sep-13 00:58N 52°09' W 005°42'7 1.0
2018-Sep-12 18:05N 52°11' W 005°53'117.0
2018-Sep-12 18:03N 52°11' W 005°54'116.9
2018-Sep-12 18:00N 52°11' W 005°55'817.0
2018-Sep-12 17:30N 52°13' W 006°08'716.4
2018-Sep-12 17:03N 52°16' W 006°20'0 7.5
2018-Sep-12 17:00N 52°15' W 006°20'0 0.3
2018-Sep-12 16:30N 52°15' W 006°20'0 0.0
2018-Sep-12 16:03N 52°15' W 006°20'0 0.0
2018-Sep-12 16:00N 52°15' W 006°20'1 1.4
2018-Sep-12 15:31N 52°16' W 006°19'715.2
2018-Sep-12 15:03N 52°13' W 006°09'117.2
2018-Sep-12 15:00N 52°13' W 006°07'917.4
2018-Sep-12 14:30N 52°11' W 005°54'7 1.2
2018-Sep-12 08:16N 52°10' W 005°42'417.6
2018-Sep-12 08:02N 52°11' W 005°48'117.7
2018-Sep-12 07:59N 52°11' W 005°50'817.7
2018-Sep-12 07:30N 52°13' W 006°03'817.6
2018-Sep-12 07:03N 52°15' W 006°16'115.6
2018-Sep-12 07:00N 52°15' W 006°17'2 4.0
2018-Sep-12 06:30N 52°15' W 006°20'0 0.0
2018-Sep-12 06:03N 52°15' W 006°20'0 0.0
2018-Sep-12 06:00N 52°15' W 006°20'0 0.0
2018-Sep-12 05:30N 52°15' W 006°20'0 0.0
2018-Sep-12 05:03N 52°15' W 006°20'0 0.0
2018-Sep-12 05:00N 52°15' W 006°20'0 0.0
2018-Sep-12 04:30N 52°15' W 006°20'0 0.0
2018-Sep-12 04:04N 52°15' W 006°20'0 0.0
2018-Sep-12 04:00N 52°15' W 006°20'0 0.0
2018-Sep-12 03:30N 52°15' W 006°20'0 0.0
2018-Sep-12 03:03N 52°15' W 006°20'0 0.0
2018-Sep-12 03:00N 52°15' W 006°20'0 0.9
2018-Sep-12 02:30N 52°16' W 006°20'714.6
2018-Sep-12 02:04N 52°17' W 006°09'119.6
2018-Sep-12 02:00N 52°17' W 006°08'919.2
2018-Sep-12 01:30N 52°23' W 005°55'716.5
2018-Sep-12 01:04N 52°20' W 005°44'116.4
2018-Sep-12 01:00N 52°20' W 005°43'10 1.4
2018-Sep-11 18:16N 52°11' W 005°49'517.4
2018-Sep-11 17:59N 52°12' W 005°57'817.5
2018-Sep-11 17:30N 52°14' W 006°10'714.9
2018-Sep-11 17:03N 52°15' W 006°20'0 3.7
2018-Sep-11 17:00N 52°15' W 006°20'0 0.0
2018-Sep-11 16:30N 52°15' W 006°20'0 0.0
2018-Sep-11 16:03N 52°15' W 006°20'0 0.0
2018-Sep-11 16:00N 52°15' W 006°20'0 0.3
2018-Sep-11 15:30N 52°15' W 006°20'512.1
2018-Sep-11 15:03N 52°14' W 006°12'116.8
2018-Sep-11 15:00N 52°13' W 006°11'917.2
2018-Sep-11 14:30N 52°12' W 005°57'1017.3
2018-Sep-11 13:57N 52°09' W 005°41'7 1.2
2018-Sep-11 08:07N 52°11' W 005°53'217.4
2018-Sep-11 08:01N 52°11' W 005°56'017.5
2018-Sep-11 08:00N 52°11' W 005°56'917.6
2018-Sep-11 07:30N 52°14' W 006°10'715.0
2018-Sep-11 07:03N 52°15' W 006°20'0 4.1
2018-Sep-11 07:00N 52°15' W 006°20'0 0.0
2018-Sep-11 06:30N 52°15' W 006°20'0 0.0
2018-Sep-11 06:03N 52°15' W 006°20'0 0.0
2018-Sep-11 06:00N 52°15' W 006°20'0 0.0
2018-Sep-11 05:30N 52°15' W 006°20'0 0.0
2018-Sep-11 05:03N 52°15' W 006°20'0 0.0
2018-Sep-11 05:00N 52°15' W 006°20'0 0.0
2018-Sep-11 04:30N 52°15' W 006°20'0 0.0
2018-Sep-11 04:03N 52°15' W 006°20'0 0.0
2018-Sep-11 04:00N 52°15' W 006°20'0 0.0
2018-Sep-11 03:30N 52°15' W 006°20'0 0.0
2018-Sep-11 03:03N 52°15' W 006°20'0 0.0
2018-Sep-11 03:00N 52°15' W 006°20'0 0.4
2018-Sep-11 02:30N 52°16' W 006°20'613.1
2018-Sep-11 02:03N 52°16' W 006°11'119.1
2018-Sep-11 02:00N 52°17' W 006°10'917.2
2018-Sep-11 01:30N 52°21' W 005°57'816.3
2018-Sep-11 01:03N 52°19' W 005°45'116.6
2018-Sep-11 01:00N 52°19' W 005°44'9 1.4
2018-Sep-10 18:22N 52°10' W 005°46'517.1
2018-Sep-10 18:03N 52°11' W 005°55'117.1
2018-Sep-10 18:00N 52°11' W 005°57'817.2
2018-Sep-10 17:30N 52°14' W 006°10'714.8
2018-Sep-10 17:03N 52°16' W 006°20'0 5.6
2018-Sep-10 17:00N 52°15' W 006°20'0 0.0
2018-Sep-10 16:30N 52°15' W 006°20'0 0.0
2018-Sep-10 16:03N 52°15' W 006°20'0 0.0
2018-Sep-10 16:00N 52°15' W 006°20'0 0.0
2018-Sep-10 15:30N 52°15' W 006°20'3 6.4
2018-Sep-10 15:03N 52°14' W 006°16'116.4
2018-Sep-10 15:00N 52°14' W 006°14'1617.2
2018-Sep-10 14:03N 52°10' W 005°49'117.6
2018-Sep-10 14:00N 52°10' W 005°47'3 0.5
2018-Sep-10 08:28N 52°09' W 005°43'717.4
2018-Sep-10 08:03N 52°11' W 005°54'117.3
2018-Sep-10 08:01N 52°11' W 005°55'917.8
2018-Sep-10 07:30N 52°14' W 006°09'715.5
2018-Sep-10 07:03N 52°15' W 006°20'0 3.0
2018-Sep-10 07:00N 52°15' W 006°20'0 0.0
2018-Sep-10 06:30N 52°15' W 006°20'0 0.0
2018-Sep-10 06:03N 52°15' W 006°20'0 0.0
2018-Sep-10 06:00N 52°15' W 006°20'0 0.0
2018-Sep-10 05:30N 52°15' W 006°20'0 0.0
2018-Sep-10 05:03N 52°15' W 006°20'0 0.0
2018-Sep-10 05:00N 52°15' W 006°20'0 0.0
2018-Sep-10 04:30N 52°15' W 006°20'0 0.0
2018-Sep-10 04:03N 52°15' W 006°20'0 0.0
2018-Sep-10 04:00N 52°15' W 006°20'0 0.0
2018-Sep-10 03:30N 52°15' W 006°20'0 0.0
2018-Sep-10 03:03N 52°15' W 006°20'0 0.5
2018-Sep-10 03:00N 52°15' W 006°20'4 7.7
2018-Sep-10 02:31N 52°14' W 006°14'716.1
2018-Sep-10 02:03N 52°11' W 006°04'115.9
2018-Sep-10 02:01N 52°11' W 006°03'915.8
2018-Sep-10 01:28N 52°09' W 005°49'12 1.8
2018-Sep-09 19:02N 52°11' W 005°30'1317.9
2018-Sep-09 18:18N 52°12' W 005°51'417.6
2018-Sep-09 18:03N 52°12' W 005°59'117.5
2018-Sep-09 18:00N 52°12' W 005°60'917.8
2018-Sep-09 17:31N 52°14' W 006°14'4 9.1
2018-Sep-09 17:03N 52°15' W 006°20'0 0.0
2018-Sep-09 17:00N 52°15' W 006°20'0 0.0
2018-Sep-09 16:29N 52°15' W 006°20'0 0.0
2018-Sep-09 16:03N 52°15' W 006°20'0 0.0
2018-Sep-09 16:00N 52°15' W 006°20'0 0.2
2018-Sep-09 15:30N 52°15' W 006°20'511.2
2018-Sep-09 15:03N 52°14' W 006°12'115.8
2018-Sep-09 15:01N 52°14' W 006°11'816.1
2018-Sep-09 14:30N 52°12' W 005°58'816.1
2018-Sep-09 14:00N 52°10' W 005°46'2 0.4
2018-Sep-09 08:27N 52°09' W 005°42'717.4
2018-Sep-09 08:03N 52°11' W 005°53'117.5
2018-Sep-09 08:00N 52°11' W 005°54'917.7
2018-Sep-09 07:30N 52°13' W 006°08'716.7
2018-Sep-09 07:04N 52°16' W 006°20'0 6.9
2018-Sep-09 07:01N 52°15' W 006°20'0 0.3
2018-Sep-09 06:31N 52°15' W 006°20'0 0.0
2018-Sep-09 06:03N 52°15' W 006°20'0 0.0
2018-Sep-09 06:00N 52°15' W 006°20'0 0.0
2018-Sep-09 05:31N 52°15' W 006°20'0 0.0
2018-Sep-09 05:04N 52°15' W 006°20'0 0.0
2018-Sep-09 05:00N 52°15' W 006°20'0 0.0
2018-Sep-09 04:30N 52°15' W 006°20'0 0.0
2018-Sep-09 04:03N 52°15' W 006°20'0 0.0
2018-Sep-09 04:00N 52°15' W 006°20'0 0.0
2018-Sep-09 03:30N 52°15' W 006°20'0 0.0
2018-Sep-09 03:03N 52°15' W 006°20'0 0.0
2018-Sep-09 03:00N 52°15' W 006°20'0 0.3
2018-Sep-09 02:30N 52°15' W 006°20'  
Track history (hours):
 
Tides and Currents Weather Stations Pressure Air Temp Water Temp Dewpoint Dewpoint Depression Visibility Wind Speed Wind Dir Waves Ship Positions

Stena Europe

Operator: Stena Line

Last reported at 2018-Sep-19 02:30 UTC. Time now 2018-Sep-19 02:54 UTC.
Position N 52°15' W 006°13'.

Length 149 m; draft 6.1 m.

Type: Passenger vessel. MMSI: 235004539.

Date/timePositionNaut miles runAvg speedWind from/ knotsBaromVisibWave heightAir tempDewpointWater temp
2018-Sep-19 02:30N 52°15' W 006°13'715.4
2018-Sep-19 02:03N 52°13' W 006°02'114.6
2018-Sep-19 02:00N 52°13' W 006°01'713.7
2018-Sep-19 01:30N 52°11' W 005°50'5 0.8
2018-Sep-18 18:59N 52°10' W 005°42'816.5
2018-Sep-18 18:30N 52°12' W 005°55'716.6
2018-Sep-18 18:04N 52°13' W 006°07'116.6
2018-Sep-18 17:59N 52°13' W 006°08'815.6
2018-Sep-18 17:30N 52°16' W 006°20'0 0.7
2018-Sep-18 17:03N 52°15' W 006°20'0 0.0
2018-Sep-18 17:00N 52°15' W 006°20'0 0.0
2018-Sep-18 16:30N 52°15' W 006°20'2 4.2
2018-Sep-18 16:03N 52°15' W 006°17'114.9
2018-Sep-18 16:00N 52°15' W 006°16'714.2
2018-Sep-18 15:30N 52°15' W 006°05'613.7
2018-Sep-18 15:03N 52°15' W 005°55'113.7
2018-Sep-18 15:00N 52°15' W 005°53'814.2
2018-Sep-18 14:27N 52°13' W 005°41'5 0.9
2018-Sep-18 08:34N 52°08' W 005°44'215.4
2018-Sep-18 08:26N 52°09' W 005°47'615.3
2018-Sep-18 08:00N 52°12' W 005°57'815.5
2018-Sep-18 07:30N 52°13' W 006°09'715.4
2018-Sep-18 07:04N 52°16' W 006°20'0 8.2
2018-Sep-18 07:00N 52°15' W 006°20'0 0.4
2018-Sep-18 06:30N 52°15' W 006°20'0 0.0
2018-Sep-18 06:03N 52°15' W 006°20'0 0.0
2018-Sep-18 06:01N 52°15' W 006°20'0 0.0
2018-Sep-18 05:30N 52°15' W 006°20'0 0.0
2018-Sep-18 05:04N 52°15' W 006°20'0 0.0
2018-Sep-18 05:00N 52°15' W 006°20'0 0.0
2018-Sep-18 04:30N 52°15' W 006°20'0 0.0
2018-Sep-18 04:03N 52°15' W 006°20'0 0.0
2018-Sep-18 04:00N 52°15' W 006°20'0 0.0
2018-Sep-18 03:30N 52°15' W 006°20'0 0.7
2018-Sep-18 03:03N 52°16' W 006°20'111.4
2018-Sep-18 03:00N 52°16' W 006°19'713.4
2018-Sep-18 02:30N 52°14' W 006°08'613.0
2018-Sep-18 02:03N 52°14' W 005°59'113.2
2018-Sep-18 02:00N 52°14' W 005°58'612.6
2018-Sep-18 01:30N 52°12' W 005°48'5 0.7
2018-Sep-17 17:59N 52°12' W 005°57'715.8
2018-Sep-17 17:30N 52°13' W 006°09'715.3
2018-Sep-17 17:03N 52°16' W 006°19'111.6
2018-Sep-17 17:00N 52°16' W 006°20'0 0.6
2018-Sep-17 16:30N 52°15' W 006°20'0 0.0
2018-Sep-17 16:03N 52°15' W 006°20'0 0.0
2018-Sep-17 16:00N 52°15' W 006°20'1 1.2
2018-Sep-17 15:30N 52°16' W 006°20'716.1
2018-Sep-17 15:03N 52°13' W 006°09'616.6
2018-Sep-17 14:43N 52°12' W 005°60'416.9
2018-Sep-17 14:30N 52°12' W 005°54'1 0.1
2018-Sep-17 07:56N 52°11' W 005°55'716.3
2018-Sep-17 07:30N 52°13' W 006°06'716.3
2018-Sep-17 07:03N 52°15' W 006°17'116.6
2018-Sep-17 07:00N 52°15' W 006°18'1 2.1
2018-Sep-17 06:31N 52°15' W 006°20'0 0.0
2018-Sep-17 06:03N 52°15' W 006°20'0 0.0
2018-Sep-17 06:01N 52°15' W 006°20'0 0.0
2018-Sep-17 05:31N 52°15' W 006°20'0 0.0
2018-Sep-17 05:03N 52°15' W 006°20'0 0.0
2018-Sep-17 05:00N 52°15' W 006°20'0 0.0
2018-Sep-17 04:31N 52°15' W 006°20'0 0.0
2018-Sep-17 04:04N 52°15' W 006°20'0 0.0
2018-Sep-17 04:01N 52°15' W 006°20'0 0.0
2018-Sep-17 03:31N 52°15' W 006°20'0 0.0
2018-Sep-17 03:03N 52°15' W 006°20'0 0.0
2018-Sep-17 03:00N 52°15' W 006°20'4 7.2
2018-Sep-17 02:30N 52°14' W 006°15'714.7
2018-Sep-17 02:03N 52°14' W 006°04'114.1
2018-Sep-17 02:00N 52°14' W 006°03'4 7.0
2018-Sep-17 01:30N 52°12' W 005°57'914.3
2018-Sep-17 00:53N 52°10' W 005°44'613.9
2018-Sep-17 00:29N 52°09' W 005°34'8 1.3
2018-Sep-16 18:12N 52°10' W 005°47'316.4
2018-Sep-16 18:02N 52°11' W 005°52'116.2
2018-Sep-16 17:59N 52°11' W 005°53'816.5
2018-Sep-16 17:30N 52°13' W 006°05'816.7
2018-Sep-16 17:03N 52°15' W 006°17'117.1
2018-Sep-16 17:00N 52°15' W 006°18'1 2.1
2018-Sep-16 16:30N 52°15' W 006°20'0 0.0
2018-Sep-16 16:03N 52°15' W 006°20'0 0.0
2018-Sep-16 15:59N 52°15' W 006°20'0 1.0
2018-Sep-16 15:30N 52°16' W 006°20'715.7
2018-Sep-16 15:03N 52°14' W 006°09'116.7
2018-Sep-16 15:00N 52°13' W 006°08'816.5
2018-Sep-16 14:30N 52°11' W 005°54'1 0.1
2018-Sep-16 08:06N 52°11' W 005°53'116.5
2018-Sep-16 08:03N 52°11' W 005°54'116.6
2018-Sep-16 08:00N 52°11' W 005°56'816.3
2018-Sep-16 07:30N 52°13' W 006°09'716.3
2018-Sep-16 07:03N 52°16' W 006°20'0 6.0
2018-Sep-16 07:00N 52°15' W 006°20'0 0.3
2018-Sep-16 06:31N 52°15' W 006°20'0 0.0
2018-Sep-16 06:04N 52°15' W 006°20'0 0.0
2018-Sep-16 05:56N 52°15' W 006°20'0 0.0
2018-Sep-16 05:31N 52°15' W 006°20'0 0.0
2018-Sep-16 05:04N 52°15' W 006°20'0 0.0
2018-Sep-16 05:01N 52°15' W 006°20'0 0.0
2018-Sep-16 04:30N 52°15' W 006°20'0 0.0
2018-Sep-16 04:04N 52°15' W 006°20'0 0.0
2018-Sep-16 04:00N 52°15' W 006°20'0 0.0
2018-Sep-16 03:30N 52°15' W 006°20'0 0.0
2018-Sep-16 03:03N 52°15' W 006°20'0 0.4
2018-Sep-16 03:00N 52°15' W 006°20'510.2
2018-Sep-16 02:30N 52°14' W 006°12'614.3
2018-Sep-16 02:03N 52°13' W 006°02'112.2
2018-Sep-16 02:00N 52°13' W 006°01'612.3
2018-Sep-16 01:30N 52°11' W 005°51'6 0.8
2018-Sep-15 18:41N 52°09' W 005°43'316.4
2018-Sep-15 18:30N 52°10' W 005°47'716.4
2018-Sep-15 18:03N 52°12' W 005°59'116.2
2018-Sep-15 18:00N 52°12' W 006°00'816.1
2018-Sep-15 17:30N 52°14' W 006°13'510.6
2018-Sep-15 17:04N 52°15' W 006°20'0 0.0
2018-Sep-15 17:01N 52°15' W 006°20'0 0.0
2018-Sep-15 16:30N 52°15' W 006°20'0 0.0
2018-Sep-15 16:04N 52°15' W 006°20'0 0.0
2018-Sep-15 16:00N 52°15' W 006°20'0 0.3
2018-Sep-15 15:30N 52°15' W 006°20'611.5
2018-Sep-15 15:00N 52°14' W 006°12'816.7
2018-Sep-15 14:30N 52°12' W 005°58'816.5
2018-Sep-15 14:00N 52°10' W 005°45'3 0.6
2018-Sep-15 08:07N 52°10' W 005°50'117.1
2018-Sep-15 08:03N 52°11' W 005°52'117.0
2018-Sep-15 08:00N 52°11' W 005°53'817.0
2018-Sep-15 07:30N 52°13' W 006°07'816.7
2018-Sep-15 07:03N 52°15' W 006°18'114.3
2018-Sep-15 07:00N 52°16' W 006°19'1 1.0
2018-Sep-15 06:30N 52°15' W 006°20'0 0.0
2018-Sep-15 06:03N 52°15' W 006°20'0 0.0
2018-Sep-15 06:00N 52°15' W 006°20'0 0.0
2018-Sep-15 05:30N 52°15' W 006°20'0 0.0
2018-Sep-15 05:03N 52°15' W 006°20'0 0.0
2018-Sep-15 05:00N 52°15' W 006°20'0 0.0
2018-Sep-15 04:30N 52°15' W 006°20'0 0.0
2018-Sep-15 04:03N 52°15' W 006°20'0 0.1
2018-Sep-15 04:00N 52°15' W 006°20'0 0.0
2018-Sep-15 03:30N 52°15' W 006°20'0 0.0
2018-Sep-15 03:03N 52°15' W 006°20'0 0.5
2018-Sep-15 03:00N 52°15' W 006°20'5 9.5
2018-Sep-15 02:30N 52°14' W 006°13'715.4
2018-Sep-15 02:03N 52°12' W 006°02'115.1
2018-Sep-15 02:00N 52°12' W 006°01'714.1
2018-Sep-15 01:30N 52°11' W 005°49'8 1.2
2018-Sep-14 18:49N 52°08' W 005°37'516.2
2018-Sep-14 18:29N 52°10' W 005°45'716.4
2018-Sep-14 18:03N 52°11' W 005°57'116.3
2018-Sep-14 18:00N 52°11' W 005°58'816.3
2018-Sep-14 17:30N 52°13' W 006°11'613.1
2018-Sep-14 17:03N 52°15' W 006°20'0 0.0
2018-Sep-14 17:01N 52°15' W 006°20'0 0.0
2018-Sep-14 16:31N 52°15' W 006°20'0 0.0
2018-Sep-14 16:03N 52°15' W 006°20'0 0.0
2018-Sep-14 16:00N 52°15' W 006°20'3 5.3
2018-Sep-14 15:30N 52°15' W 006°16'715.8
2018-Sep-14 15:03N 52°13' W 006°05'116.2
2018-Sep-14 15:00N 52°12' W 006°03'815.5
2018-Sep-14 14:30N 52°11' W 005°51'2 0.3
2018-Sep-14 07:56N 52°11' W 005°55'716.7
2018-Sep-14 07:30N 52°13' W 006°06'716.5
2018-Sep-14 07:03N 52°15' W 006°18'115.0
2018-Sep-14 07:00N 52°16' W 006°19'1 2.0
2018-Sep-14 06:30N 52°15' W 006°20'0 0.0
2018-Sep-14 06:03N 52°15' W 006°20'0 0.0
2018-Sep-14 06:00N 52°15' W 006°20'0 0.0
2018-Sep-14 05:30N 52°15' W 006°20'0 0.0
2018-Sep-14 05:03N 52°15' W 006°20'0 0.0
2018-Sep-14 05:00N 52°15' W 006°20'0 0.0
2018-Sep-14 04:29N 52°15' W 006°20'0 0.0
2018-Sep-14 04:03N 52°15' W 006°20'0 0.0
2018-Sep-14 04:00N 52°15' W 006°20'0 0.0
2018-Sep-14 03:30N 52°15' W 006°20'0 0.0
2018-Sep-14 03:03N 52°15' W 006°20'0 1.0
2018-Sep-14 03:00N 52°15' W 006°20'510.5
2018-Sep-14 02:30N 52°14' W 006°12'715.9
2018-Sep-14 02:03N 52°12' W 006°01'115.6
2018-Sep-14 02:00N 52°12' W 005°59'814.9
2018-Sep-14 01:29N 52°10' W 005°47'1 0.1
2018-Sep-13 18:40N 52°10' W 005°46'316.7
2018-Sep-13 18:30N 52°10' W 005°51'716.8
2018-Sep-13 18:03N 52°12' W 006°03'117.0
2018-Sep-13 18:00N 52°13' W 006°04'816.9
2018-Sep-13 17:30N 52°15' W 006°17'2 4.3
2018-Sep-13 17:03N 52°15' W 006°20'0 0.0
2018-Sep-13 17:00N 52°15' W 006°20'0 0.0
2018-Sep-13 16:30N 52°15' W 006°20'0 0.0
2018-Sep-13 16:03N 52°15' W 006°20'0 0.0
2018-Sep-13 16:00N 52°15' W 006°20'3 6.8
2018-Sep-13 15:30N 52°14' W 006°15'716.2
2018-Sep-13 15:03N 52°12' W 006°04'116.7
2018-Sep-13 15:00N 52°12' W 006°02'816.3
2018-Sep-13 14:30N 52°11' W 005°49'6 0.9
2018-Sep-13 07:47N 52°12' W 005°58'517.5
2018-Sep-13 07:30N 52°13' W 006°06'716.6
2018-Sep-13 07:03N 52°15' W 006°18'114.1
2018-Sep-13 07:01N 52°16' W 006°19'1 2.0
2018-Sep-13 06:31N 52°15' W 006°20'0 0.0
2018-Sep-13 06:04N 52°15' W 006°20'0 0.0
2018-Sep-13 06:01N 52°15' W 006°20'0 0.0
2018-Sep-13 05:29N 52°15' W 006°20'0 0.0
2018-Sep-13 05:04N 52°15' W 006°20'0 0.0
2018-Sep-13 05:01N 52°15' W 006°20'0 0.0
2018-Sep-13 04:30N 52°15' W 006°20'0 0.0
2018-Sep-13 04:03N 52°15' W 006°20'0 0.0
2018-Sep-13 04:00N 52°15' W 006°20'0 0.0
2018-Sep-13 03:30N 52°15' W 006°20'0 0.0
2018-Sep-13 03:03N 52°15' W 006°20'0 0.1
2018-Sep-13 03:01N 52°15' W 006°20'4 8.3
2018-Sep-13 02:30N 52°14' W 006°14'714.9
2018-Sep-13 02:03N 52°13' W 006°03'114.7
2018-Sep-13 02:00N 52°12' W 006°02'713.7
2018-Sep-13 01:29N 52°12' W 005°50'511.2
2018-Sep-13 01:03N 52°10' W 005°43'112.8
2018-Sep-13 00:58N 52°09' W 005°42'7 1.0
2018-Sep-12 18:05N 52°11' W 005°53'117.0
2018-Sep-12 18:03N 52°11' W 005°54'116.9
2018-Sep-12 18:00N 52°11' W 005°55'817.0
2018-Sep-12 17:30N 52°13' W 006°08'716.4
2018-Sep-12 17:03N 52°16' W 006°20'0 7.5
2018-Sep-12 17:00N 52°15' W 006°20'0 0.3
2018-Sep-12 16:30N 52°15' W 006°20'0 0.0
2018-Sep-12 16:03N 52°15' W 006°20'0 0.0
2018-Sep-12 16:00N 52°15' W 006°20'1 1.4
2018-Sep-12 15:31N 52°16' W 006°19'715.2
2018-Sep-12 15:03N 52°13' W 006°09'117.2
2018-Sep-12 15:00N 52°13' W 006°07'917.4
2018-Sep-12 14:30N 52°11' W 005°54'7 1.2
2018-Sep-12 08:16N 52°10' W 005°42'417.6
2018-Sep-12 08:02N 52°11' W 005°48'117.7
2018-Sep-12 07:59N 52°11' W 005°50'817.7
2018-Sep-12 07:30N 52°13' W 006°03'817.6
2018-Sep-12 07:03N 52°15' W 006°16'115.6
2018-Sep-12 07:00N 52°15' W 006°17'2 4.0
2018-Sep-12 06:30N 52°15' W 006°20'0 0.0
2018-Sep-12 06:03N 52°15' W 006°20'0 0.0
2018-Sep-12 06:00N 52°15' W 006°20'0 0.0
2018-Sep-12 05:30N 52°15' W 006°20'0 0.0
2018-Sep-12 05:03N 52°15' W 006°20'0 0.0
2018-Sep-12 05:00N 52°15' W 006°20'0 0.0
2018-Sep-12 04:30N 52°15' W 006°20'0 0.0
2018-Sep-12 04:04N 52°15' W 006°20'0 0.0
2018-Sep-12 04:00N 52°15' W 006°20'0 0.0
2018-Sep-12 03:30N 52°15' W 006°20'0 0.0
2018-Sep-12 03:03N 52°15' W 006°20'0 0.0
2018-Sep-12 03:00N 52°15' W 006°20'0 0.9
2018-Sep-12 02:30N 52°16' W 006°20'714.6
2018-Sep-12 02:04N 52°17' W 006°09'119.6
2018-Sep-12 02:00N 52°17' W 006°08'919.2
2018-Sep-12 01:30N 52°23' W 005°55'716.5
2018-Sep-12 01:04N 52°20' W 005°44'116.4
2018-Sep-12 01:00N 52°20' W 005°43'10 1.4
2018-Sep-11 18:16N 52°11' W 005°49'517.4
2018-Sep-11 17:59N 52°12' W 005°57'817.5
2018-Sep-11 17:30N 52°14' W 006°10'714.9
2018-Sep-11 17:03N 52°15' W 006°20'0 3.7
2018-Sep-11 17:00N 52°15' W 006°20'0 0.0
2018-Sep-11 16:30N 52°15' W 006°20'0 0.0
2018-Sep-11 16:03N 52°15' W 006°20'0 0.0
2018-Sep-11 16:00N 52°15' W 006°20'0 0.3
2018-Sep-11 15:30N 52°15' W 006°20'512.1
2018-Sep-11 15:03N 52°14' W 006°12'116.8
2018-Sep-11 15:00N 52°13' W 006°11'917.2
2018-Sep-11 14:30N 52°12' W 005°57'1017.3
2018-Sep-11 13:57N 52°09' W 005°41'7 1.2
2018-Sep-11 08:07N 52°11' W 005°53'217.4
2018-Sep-11 08:01N 52°11' W 005°56'017.5
2018-Sep-11 08:00N 52°11' W 005°56'917.6
2018-Sep-11 07:30N 52°14' W 006°10'715.0
2018-Sep-11 07:03N 52°15' W 006°20'0 4.1
2018-Sep-11 07:00N 52°15' W 006°20'0 0.0
2018-Sep-11 06:30N 52°15' W 006°20'0 0.0
2018-Sep-11 06:03N 52°15' W 006°20'0 0.0
2018-Sep-11 06:00N 52°15' W 006°20'0 0.0
2018-Sep-11 05:30N 52°15' W 006°20'0 0.0
2018-Sep-11 05:03N 52°15' W 006°20'0 0.0
2018-Sep-11 05:00N 52°15' W 006°20'0 0.0
2018-Sep-11 04:30N 52°15' W 006°20'0 0.0
2018-Sep-11 04:03N 52°15' W 006°20'0 0.0
2018-Sep-11 04:00N 52°15' W 006°20'0 0.0
2018-Sep-11 03:30N 52°15' W 006°20'0 0.0
2018-Sep-11 03:03N 52°15' W 006°20'0 0.0
2018-Sep-11 03:00N 52°15' W 006°20'0 0.4
2018-Sep-11 02:30N 52°16' W 006°20'613.1
2018-Sep-11 02:03N 52°16' W 006°11'119.1
2018-Sep-11 02:00N 52°17' W 006°10'917.2
2018-Sep-11 01:30N 52°21' W 005°57'816.3
2018-Sep-11 01:03N 52°19' W 005°45'116.6
2018-Sep-11 01:00N 52°19' W 005°44'9 1.4
2018-Sep-10 18:22N 52°10' W 005°46'517.1
2018-Sep-10 18:03N 52°11' W 005°55'117.1
2018-Sep-10 18:00N 52°11' W 005°57'817.2
2018-Sep-10 17:30N 52°14' W 006°10'714.8
2018-Sep-10 17:03N 52°16' W 006°20'0 5.6
2018-Sep-10 17:00N 52°15' W 006°20'0 0.0
2018-Sep-10 16:30N 52°15' W 006°20'0 0.0
2018-Sep-10 16:03N 52°15' W 006°20'0 0.0
2018-Sep-10 16:00N 52°15' W 006°20'0 0.0
2018-Sep-10 15:30N 52°15' W 006°20'3 6.4
2018-Sep-10 15:03N 52°14' W 006°16'116.4
2018-Sep-10 15:00N 52°14' W 006°14'1617.2
2018-Sep-10 14:03N 52°10' W 005°49'117.6
2018-Sep-10 14:00N 52°10' W 005°47'3 0.5
2018-Sep-10 08:28N 52°09' W 005°43'717.4
2018-Sep-10 08:03N 52°11' W 005°54'117.3
2018-Sep-10 08:01N 52°11' W 005°55'917.8
2018-Sep-10 07:30N 52°14' W 006°09'715.5
2018-Sep-10 07:03N 52°15' W 006°20'0 3.0
2018-Sep-10 07:00N 52°15' W 006°20'0 0.0
2018-Sep-10 06:30N 52°15' W 006°20'0 0.0
2018-Sep-10 06:03N 52°15' W 006°20'0 0.0
2018-Sep-10 06:00N 52°15' W 006°20'0 0.0
2018-Sep-10 05:30N 52°15' W 006°20'0 0.0
2018-Sep-10 05:03N 52°15' W 006°20'0 0.0
2018-Sep-10 05:00N 52°15' W 006°20'0 0.0
2018-Sep-10 04:30N 52°15' W 006°20'0 0.0
2018-Sep-10 04:03N 52°15' W 006°20'0 0.0
2018-Sep-10 04:00N 52°15' W 006°20'0 0.0
2018-Sep-10 03:30N 52°15' W 006°20'0 0.0
2018-Sep-10 03:03N 52°15' W 006°20'0 0.5
2018-Sep-10 03:00N 52°15' W 006°20'4 7.7
2018-Sep-10 02:31N 52°14' W 006°14'716.1
2018-Sep-10 02:03N 52°11' W 006°04'115.9
2018-Sep-10 02:01N 52°11' W 006°03'915.8
2018-Sep-10 01:28N 52°09' W 005°49'12 1.8
2018-Sep-09 19:02N 52°11' W 005°30'1317.9
2018-Sep-09 18:18N 52°12' W 005°51'417.6
2018-Sep-09 18:03N 52°12' W 005°59'117.5
2018-Sep-09 18:00N 52°12' W 005°60'917.8
2018-Sep-09 17:31N 52°14' W 006°14'4 9.1
2018-Sep-09 17:03N 52°15' W 006°20'0 0.0
2018-Sep-09 17:00N 52°15' W 006°20'0 0.0
2018-Sep-09 16:29N 52°15' W 006°20'0 0.0
2018-Sep-09 16:03N 52°15' W 006°20'0 0.0
2018-Sep-09 16:00N 52°15' W 006°20'0 0.2
2018-Sep-09 15:30N 52°15' W 006°20'511.2
2018-Sep-09 15:03N 52°14' W 006°12'115.8
2018-Sep-09 15:01N 52°14' W 006°11'816.1
2018-Sep-09 14:30N 52°12' W 005°58'816.1
2018-Sep-09 14:00N 52°10' W 005°46'2 0.4
2018-Sep-09 08:27N 52°09' W 005°42'717.4
2018-Sep-09 08:03N 52°11' W 005°53'117.5
2018-Sep-09 08:00N 52°11' W 005°54'917.7
2018-Sep-09 07:30N 52°13' W 006°08'716.7
2018-Sep-09 07:04N 52°16' W 006°20'0 6.9
2018-Sep-09 07:01N 52°15' W 006°20'0 0.3
2018-Sep-09 06:31N 52°15' W 006°20'0 0.0
2018-Sep-09 06:03N 52°15' W 006°20'0 0.0
2018-Sep-09 06:00N 52°15' W 006°20'0 0.0
2018-Sep-09 05:31N 52°15' W 006°20'0 0.0
2018-Sep-09 05:04N 52°15' W 006°20'0 0.0
2018-Sep-09 05:00N 52°15' W 006°20'0 0.0
2018-Sep-09 04:30N 52°15' W 006°20'0 0.0
2018-Sep-09 04:03N 52°15' W 006°20'0 0.0
2018-Sep-09 04:00N 52°15' W 006°20'0 0.0
2018-Sep-09 03:30N 52°15' W 006°20'0 0.0
2018-Sep-09 03:03N 52°15' W 006°20'0 0.0
2018-Sep-09 03:00N 52°15' W 006°20'0 0.3
2018-Sep-09 02:30N 52°15' W 006°20'  

Dump ship's entire track history